sensor_id;sensor_type;location;lat;lon;timestamp;P1;durP1;ratioP1;P2;durP2;ratioP2
31112;SDS011;17763;48.730;9.136;2022-09-09T00:00:47;1.90;;;1.10;;
31112;SDS011;17763;48.730;9.136;2022-09-09T00:03:21;3.92;;;1.42;;
31112;SDS011;17763;48.730;9.136;2022-09-09T00:05:53;2.65;;;1.30;;
31112;SDS011;17763;48.730;9.136;2022-09-09T00:08:41;1.10;;;1.00;;
31112;SDS011;17763;48.730;9.136;2022-09-09T00:11:24;2.55;;;1.20;;
31112;SDS011;17763;48.730;9.136;2022-09-09T00:13:58;3.75;;;1.02;;
31112;SDS011;17763;48.730;9.136;2022-09-09T00:16:34;4.68;;;1.00;;
31112;SDS011;17763;48.730;9.136;2022-09-09T00:22:14;1.58;;;1.05;;
31112;SDS011;17763;48.730;9.136;2022-09-09T00:24:37;3.00;;;1.00;;
31112;SDS011;17763;48.730;9.136;2022-09-09T00:27:16;2.67;;;1.05;;
31112;SDS011;17763;48.730;9.136;2022-09-09T00:29:45;1.25;;;1.00;;
31112;SDS011;17763;48.730;9.136;2022-09-09T00:32:19;3.00;;;1.20;;
31112;SDS011;17763;48.730;9.136;2022-09-09T00:34:56;3.42;;;1.10;;
31112;SDS011;17763;48.730;9.136;2022-09-09T00:37:29;3.20;;;1.00;;
31112;SDS011;17763;48.730;9.136;2022-09-09T00:39:57;3.67;;;1.10;;
31112;SDS011;17763;48.730;9.136;2022-09-09T00:47:51;3.53;;;1.10;;
31112;SDS011;17763;48.730;9.136;2022-09-09T00:56:20;1.75;;;0.80;;
31112;SDS011;17763;48.730;9.136;2022-09-09T01:01:36;1.65;;;0.82;;
31112;SDS011;17763;48.730;9.136;2022-09-09T01:04:03;3.28;;;0.98;;
31112;SDS011;17763;48.730;9.136;2022-09-09T01:06:36;2.47;;;0.98;;
31112;SDS011;17763;48.730;9.136;2022-09-09T01:12:07;3.47;;;0.95;;
31112;SDS011;17763;48.730;9.136;2022-09-09T01:14:45;1.77;;;1.10;;
31112;SDS011;17763;48.730;9.136;2022-09-09T01:17:26;2.10;;;1.05;;
31112;SDS011;17763;48.730;9.136;2022-09-09T01:22:49;2.90;;;1.40;;
31112;SDS011;17763;48.730;9.136;2022-09-09T01:28:17;4.05;;;0.93;;
31112;SDS011;17763;48.730;9.136;2022-09-09T01:30:47;3.33;;;1.13;;
31112;SDS011;17763;48.730;9.136;2022-09-09T01:33:14;2.40;;;1.30;;
31112;SDS011;17763;48.730;9.136;2022-09-09T01:38:13;4.85;;;1.15;;
31112;SDS011;17763;48.730;9.136;2022-09-09T01:40:41;1.77;;;0.77;;
31112;SDS011;17763;48.730;9.136;2022-09-09T01:43:07;3.42;;;0.90;;
31112;SDS011;17763;48.730;9.136;2022-09-09T01:45:33;2.45;;;1.00;;
31112;SDS011;17763;48.730;9.136;2022-09-09T01:47:59;3.80;;;1.05;;
31112;SDS011;17763;48.730;9.136;2022-09-09T01:50:27;1.83;;;1.27;;
31112;SDS011;17763;48.730;9.136;2022-09-09T01:52:56;3.92;;;1.15;;
31112;SDS011;17763;48.730;9.136;2022-09-09T01:55:35;2.38;;;1.10;;
31112;SDS011;17763;48.730;9.136;2022-09-09T02:00:43;1.40;;;0.80;;
31112;SDS011;17763;48.730;9.136;2022-09-09T02:03:27;2.55;;;1.00;;
31112;SDS011;17763;48.730;9.136;2022-09-09T02:05:57;3.03;;;1.10;;
31112;SDS011;17763;48.730;9.136;2022-09-09T02:08:47;2.72;;;1.00;;
31112;SDS011;17763;48.730;9.136;2022-09-09T02:11:19;4.10;;;1.38;;
31112;SDS011;17763;48.730;9.136;2022-09-09T02:13:50;1.27;;;1.17;;
31112;SDS011;17763;48.730;9.136;2022-09-09T02:21:42;2.53;;;0.90;;
31112;SDS011;17763;48.730;9.136;2022-09-09T02:24:12;1.38;;;0.73;;
31112;SDS011;17763;48.730;9.136;2022-09-09T02:26:41;2.13;;;0.80;;
31112;SDS011;17763;48.730;9.136;2022-09-09T02:29:13;2.33;;;0.90;;
31112;SDS011;17763;48.730;9.136;2022-09-09T02:31:42;3.45;;;0.90;;
31112;SDS011;17763;48.730;9.136;2022-09-09T02:34:13;1.58;;;1.10;;
31112;SDS011;17763;48.730;9.136;2022-09-09T02:36:40;2.40;;;0.90;;
31112;SDS011;17763;48.730;9.136;2022-09-09T02:39:08;1.10;;;1.00;;
31112;SDS011;17763;48.730;9.136;2022-09-09T02:41:36;1.83;;;0.90;;
31112;SDS011;17763;48.730;9.136;2022-09-09T02:44:24;2.58;;;1.08;;
31112;SDS011;17763;48.730;9.136;2022-09-09T02:55:29;1.00;;;0.90;;
31112;SDS011;17763;48.730;9.136;2022-09-09T02:57:59;3.40;;;0.93;;
31112;SDS011;17763;48.730;9.136;2022-09-09T03:00:30;2.10;;;1.10;;
31112;SDS011;17763;48.730;9.136;2022-09-09T03:02:57;2.53;;;1.02;;
31112;SDS011;17763;48.730;9.136;2022-09-09T03:05:25;3.35;;;1.10;;
31112;SDS011;17763;48.730;9.136;2022-09-09T03:07:51;3.83;;;1.08;;
31112;SDS011;17763;48.730;9.136;2022-09-09T03:10:16;2.97;;;0.90;;
31112;SDS011;17763;48.730;9.136;2022-09-09T03:12:42;2.75;;;1.00;;
31112;SDS011;17763;48.730;9.136;2022-09-09T03:15:10;2.25;;;1.23;;
31112;SDS011;17763;48.730;9.136;2022-09-09T03:17:36;2.85;;;0.75;;
31112;SDS011;17763;48.730;9.136;2022-09-09T03:20:02;1.27;;;0.60;;
31112;SDS011;17763;48.730;9.136;2022-09-09T03:22:29;1.85;;;0.80;;
31112;SDS011;17763;48.730;9.136;2022-09-09T03:24:54;2.50;;;0.63;;
31112;SDS011;17763;48.730;9.136;2022-09-09T03:27:20;1.35;;;0.70;;
31112;SDS011;17763;48.730;9.136;2022-09-09T03:29:46;1.88;;;0.60;;
31112;SDS011;17763;48.730;9.136;2022-09-09T03:32:11;0.85;;;0.70;;
31112;SDS011;17763;48.730;9.136;2022-09-09T03:34:37;1.75;;;0.75;;
31112;SDS011;17763;48.730;9.136;2022-09-09T03:37:06;1.23;;;0.90;;
31112;SDS011;17763;48.730;9.136;2022-09-09T03:39:31;0.80;;;0.80;;
31112;SDS011;17763;48.730;9.136;2022-09-09T03:41:57;0.77;;;0.60;;
31112;SDS011;17763;48.730;9.136;2022-09-09T03:44:23;1.50;;;0.75;;
31112;SDS011;17763;48.730;9.136;2022-09-09T03:46:48;2.35;;;0.82;;
31112;SDS011;17763;48.730;9.136;2022-09-09T03:49:14;2.53;;;0.70;;
31112;SDS011;17763;48.730;9.136;2022-09-09T03:51:40;1.15;;;0.73;;
31112;SDS011;17763;48.730;9.136;2022-09-09T03:54:08;1.50;;;0.60;;
31112;SDS011;17763;48.730;9.136;2022-09-09T03:56:35;1.85;;;0.63;;
31112;SDS011;17763;48.730;9.136;2022-09-09T03:59:02;1.63;;;0.90;;
31112;SDS011;17763;48.730;9.136;2022-09-09T04:01:28;1.63;;;0.77;;
31112;SDS011;17763;48.730;9.136;2022-09-09T04:03:56;1.65;;;1.52;;
31112;SDS011;17763;48.730;9.136;2022-09-09T04:06:23;4.57;;;1.20;;
31112;SDS011;17763;48.730;9.136;2022-09-09T04:08:52;3.45;;;1.00;;
31112;SDS011;17763;48.730;9.136;2022-09-09T04:11:17;0.80;;;0.70;;
31112;SDS011;17763;48.730;9.136;2022-09-09T04:13:44;2.25;;;0.77;;
31112;SDS011;17763;48.730;9.136;2022-09-09T04:16:11;1.83;;;0.70;;
31112;SDS011;17763;48.730;9.136;2022-09-09T04:18:38;1.83;;;1.05;;
31112;SDS011;17763;48.730;9.136;2022-09-09T04:21:04;1.65;;;0.73;;
31112;SDS011;17763;48.730;9.136;2022-09-09T04:23:33;0.60;;;0.60;;
31112;SDS011;17763;48.730;9.136;2022-09-09T04:26:02;3.13;;;0.85;;
31112;SDS011;17763;48.730;9.136;2022-09-09T04:28:29;1.88;;;0.98;;
31112;SDS011;17763;48.730;9.136;2022-09-09T04:31:32;0.87;;;0.70;;
31112;SDS011;17763;48.730;9.136;2022-09-09T04:33:51;1.92;;;1.08;;
31112;SDS011;17763;48.730;9.136;2022-09-09T04:36:17;1.73;;;1.13;;
31112;SDS011;17763;48.730;9.136;2022-09-09T04:38:44;1.63;;;1.20;;
31112;SDS011;17763;48.730;9.136;2022-09-09T04:41:10;3.22;;;0.80;;
31112;SDS011;17763;48.730;9.136;2022-09-09T04:43:39;1.00;;;0.90;;
31112;SDS011;17763;48.730;9.136;2022-09-09T04:46:05;3.20;;;1.25;;
31112;SDS011;17763;48.730;9.136;2022-09-09T04:48:31;1.45;;;1.08;;
31112;SDS011;17763;48.730;9.136;2022-09-09T04:50:57;2.08;;;1.30;;
31112;SDS011;17763;48.730;9.136;2022-09-09T04:53:24;2.75;;;1.65;;
31112;SDS011;17763;48.730;9.136;2022-09-09T04:55:50;1.30;;;1.02;;
31112;SDS011;17763;48.730;9.136;2022-09-09T04:58:17;2.92;;;1.27;;
31112;SDS011;17763;48.730;9.136;2022-09-09T05:00:43;4.25;;;1.17;;
31112;SDS011;17763;48.730;9.136;2022-09-09T05:03:11;2.47;;;1.25;;
31112;SDS011;17763;48.730;9.136;2022-09-09T05:05:37;3.72;;;1.20;;
31112;SDS011;17763;48.730;9.136;2022-09-09T05:10:32;3.28;;;1.30;;
31112;SDS011;17763;48.730;9.136;2022-09-09T05:12:59;3.85;;;1.17;;
31112;SDS011;17763;48.730;9.136;2022-09-09T05:15:27;5.47;;;1.27;;
31112;SDS011;17763;48.730;9.136;2022-09-09T05:17:56;1.63;;;1.13;;
31112;SDS011;17763;48.730;9.136;2022-09-09T05:20:23;3.75;;;1.10;;
31112;SDS011;17763;48.730;9.136;2022-09-09T05:22:52;3.88;;;1.60;;
31112;SDS011;17763;48.730;9.136;2022-09-09T05:25:18;9.88;;;1.48;;
31112;SDS011;17763;48.730;9.136;2022-09-09T05:27:50;2.67;;;1.40;;
31112;SDS011;17763;48.730;9.136;2022-09-09T05:30:19;1.63;;;1.20;;
31112;SDS011;17763;48.730;9.136;2022-09-09T05:32:48;2.08;;;1.10;;
31112;SDS011;17763;48.730;9.136;2022-09-09T05:35:14;5.43;;;1.40;;
31112;SDS011;17763;48.730;9.136;2022-09-09T05:37:46;2.80;;;1.63;;
31112;SDS011;17763;48.730;9.136;2022-09-09T05:40:12;3.65;;;1.20;;
31112;SDS011;17763;48.730;9.136;2022-09-09T05:42:41;2.88;;;1.30;;
31112;SDS011;17763;48.730;9.136;2022-09-09T05:45:07;2.65;;;1.17;;
31112;SDS011;17763;48.730;9.136;2022-09-09T05:47:33;8.48;;;1.27;;
31112;SDS011;17763;48.730;9.136;2022-09-09T05:50:00;2.97;;;1.17;;
31112;SDS011;17763;48.730;9.136;2022-09-09T05:52:26;3.17;;;1.30;;
31112;SDS011;17763;48.730;9.136;2022-09-09T05:54:53;2.05;;;1.38;;
31112;SDS011;17763;48.730;9.136;2022-09-09T05:57:20;2.40;;;1.55;;
31112;SDS011;17763;48.730;9.136;2022-09-09T05:59:48;3.60;;;1.75;;
31112;SDS011;17763;48.730;9.136;2022-09-09T06:02:14;4.90;;;1.98;;
31112;SDS011;17763;48.730;9.136;2022-09-09T06:04:40;4.22;;;1.77;;
31112;SDS011;17763;48.730;9.136;2022-09-09T06:07:09;5.82;;;1.48;;
31112;SDS011;17763;48.730;9.136;2022-09-09T06:09:38;3.08;;;1.40;;
31112;SDS011;17763;48.730;9.136;2022-09-09T06:12:03;6.93;;;2.08;;
31112;SDS011;17763;48.730;9.136;2022-09-09T06:14:29;5.10;;;1.50;;
31112;SDS011;17763;48.730;9.136;2022-09-09T06:16:55;5.22;;;1.70;;
31112;SDS011;17763;48.730;9.136;2022-09-09T06:19:23;7.43;;;1.67;;
31112;SDS011;17763;48.730;9.136;2022-09-09T06:21:51;4.00;;;1.67;;
31112;SDS011;17763;48.730;9.136;2022-09-09T06:24:17;3.17;;;1.10;;
31112;SDS011;17763;48.730;9.136;2022-09-09T06:26:44;5.13;;;1.60;;
31112;SDS011;17763;48.730;9.136;2022-09-09T06:29:12;3.90;;;1.90;;
31112;SDS011;17763;48.730;9.136;2022-09-09T06:31:38;2.78;;;1.50;;
31112;SDS011;17763;48.730;9.136;2022-09-09T06:34:07;2.92;;;1.63;;
31112;SDS011;17763;48.730;9.136;2022-09-09T06:36:36;2.95;;;1.50;;
31112;SDS011;17763;48.730;9.136;2022-09-09T06:39:06;3.85;;;1.40;;
31112;SDS011;17763;48.730;9.136;2022-09-09T06:41:33;3.65;;;1.58;;
31112;SDS011;17763;48.730;9.136;2022-09-09T06:43:59;3.38;;;1.52;;
31112;SDS011;17763;48.730;9.136;2022-09-09T06:46:26;3.65;;;1.52;;
31112;SDS011;17763;48.730;9.136;2022-09-09T06:48:55;2.30;;;1.35;;
31112;SDS011;17763;48.730;9.136;2022-09-09T06:51:22;4.28;;;1.80;;
31112;SDS011;17763;48.730;9.136;2022-09-09T06:53:51;3.03;;;1.33;;
31112;SDS011;17763;48.730;9.136;2022-09-09T06:56:22;3.67;;;1.25;;
31112;SDS011;17763;48.730;9.136;2022-09-09T06:58:56;2.78;;;1.08;;
31112;SDS011;17763;48.730;9.136;2022-09-09T07:01:26;3.05;;;1.30;;
31112;SDS011;17763;48.730;9.136;2022-09-09T07:03:59;5.78;;;1.50;;
31112;SDS011;17763;48.730;9.136;2022-09-09T07:06:30;4.20;;;1.45;;
31112;SDS011;17763;48.730;9.136;2022-09-09T07:09:00;1.85;;;1.25;;
31112;SDS011;17763;48.730;9.136;2022-09-09T07:11:30;6.05;;;1.00;;
31112;SDS011;17763;48.730;9.136;2022-09-09T07:13:58;3.47;;;1.02;;
31112;SDS011;17763;48.730;9.136;2022-09-09T07:16:24;1.80;;;1.10;;
31112;SDS011;17763;48.730;9.136;2022-09-09T07:18:54;3.17;;;1.38;;
31112;SDS011;17763;48.730;9.136;2022-09-09T07:21:27;3.58;;;1.20;;
31112;SDS011;17763;48.730;9.136;2022-09-09T07:23:56;2.28;;;1.23;;
31112;SDS011;17763;48.730;9.136;2022-09-09T07:26:26;3.55;;;1.10;;
31112;SDS011;17763;48.730;9.136;2022-09-09T07:28:56;2.72;;;1.17;;
31112;SDS011;17763;48.730;9.136;2022-09-09T07:31:25;2.40;;;1.20;;
31112;SDS011;17763;48.730;9.136;2022-09-09T07:33:52;3.25;;;1.63;;
31112;SDS011;17763;48.730;9.136;2022-09-09T07:36:19;2.67;;;1.48;;
31112;SDS011;17763;48.730;9.136;2022-09-09T07:38:47;2.75;;;1.35;;
31112;SDS011;17763;48.730;9.136;2022-09-09T07:41:35;7.20;;;1.67;;
31112;SDS011;17763;48.730;9.136;2022-09-09T07:44:05;6.63;;;1.30;;
31112;SDS011;17763;48.730;9.136;2022-09-09T07:46:35;4.82;;;1.20;;
31112;SDS011;17763;48.730;9.136;2022-09-09T07:49:02;3.05;;;1.10;;
31112;SDS011;17763;48.730;9.136;2022-09-09T07:51:29;5.43;;;2.65;;
31112;SDS011;17763;48.730;9.136;2022-09-09T07:54:04;3.55;;;1.30;;
31112;SDS011;17763;48.730;9.136;2022-09-09T07:56:31;3.25;;;1.20;;
31112;SDS011;17763;48.730;9.136;2022-09-09T07:58:58;4.53;;;1.48;;
31112;SDS011;17763;48.730;9.136;2022-09-09T08:01:31;7.28;;;1.33;;
31112;SDS011;17763;48.730;9.136;2022-09-09T08:04:04;5.30;;;0.98;;
31112;SDS011;17763;48.730;9.136;2022-09-09T08:06:42;4.25;;;1.25;;
31112;SDS011;17763;48.730;9.136;2022-09-09T08:09:09;4.13;;;1.20;;
31112;SDS011;17763;48.730;9.136;2022-09-09T08:11:35;5.55;;;1.63;;
31112;SDS011;17763;48.730;9.136;2022-09-09T08:14:02;3.25;;;1.08;;
31112;SDS011;17763;48.730;9.136;2022-09-09T08:16:30;1.67;;;1.08;;
31112;SDS011;17763;48.730;9.136;2022-09-09T08:18:57;3.13;;;1.02;;
31112;SDS011;17763;48.730;9.136;2022-09-09T08:21:25;3.22;;;1.10;;
31112;SDS011;17763;48.730;9.136;2022-09-09T08:23:53;2.45;;;0.80;;
31112;SDS011;17763;48.730;9.136;2022-09-09T08:26:23;2.78;;;1.00;;
31112;SDS011;17763;48.730;9.136;2022-09-09T08:28:52;6.30;;;1.08;;
31112;SDS011;17763;48.730;9.136;2022-09-09T08:31:20;3.88;;;0.80;;
31112;SDS011;17763;48.730;9.136;2022-09-09T08:33:48;3.33;;;1.33;;
31112;SDS011;17763;48.730;9.136;2022-09-09T08:36:15;3.42;;;1.02;;
31112;SDS011;17763;48.730;9.136;2022-09-09T08:38:47;6.13;;;1.10;;
